createdAt,value
2022-08-18T00:01:16.686Z,26.38
2022-08-18T00:03:55.672Z,26.36
2022-08-18T00:06:28.974Z,26.34
2022-08-18T00:09:03.064Z,26.36
2022-08-18T00:11:41.364Z,26.22
2022-08-18T00:14:22.202Z,26.36
2022-08-18T00:16:54.099Z,26.22
2022-08-18T00:19:47.093Z,26.28
2022-08-18T00:22:15.915Z,26.23
2022-08-18T00:24:48.110Z,26.25
2022-08-18T00:27:30.257Z,26.14
2022-08-18T00:30:11.928Z,25.95
2022-08-18T00:32:45.005Z,25.96
2022-08-18T00:35:18.663Z,25.86
2022-08-18T00:37:45.875Z,25.69
2022-08-18T00:40:19.778Z,25.72
2022-08-18T00:42:53.382Z,25.66
2022-08-18T00:45:32.933Z,25.61
2022-08-18T00:48:00.845Z,25.43
2022-08-18T00:50:45.023Z,25.20
2022-08-18T00:53:18.518Z,25.30
2022-08-18T00:55:53.948Z,25.36
2022-08-18T00:58:53.555Z,25.22
2022-08-18T01:01:26.674Z,25.37
2022-08-18T01:04:03.617Z,25.40
2022-08-18T01:06:42.448Z,25.41
2022-08-18T01:09:10.640Z,25.36
2022-08-18T01:11:39.933Z,25.16
2022-08-18T01:14:10.282Z,25.24
2022-08-18T01:16:57.587Z,25.15
2022-08-18T01:19:46.514Z,25.32
2022-08-18T01:22:23.122Z,25.32
2022-08-18T01:25:11.044Z,25.32
2022-08-18T01:27:41.651Z,25.20
2022-08-18T01:30:14.834Z,25.28
2022-08-18T01:32:45.847Z,25.18
2022-08-18T01:35:17.552Z,25.12
2022-08-18T01:37:44.801Z,24.97
2022-08-18T01:41:25.074Z,25.09
2022-08-18T01:43:04.409Z,24.97
2022-08-18T01:45:33.517Z,24.92
2022-08-18T01:48:01.343Z,24.71
2022-08-18T01:50:30.321Z,24.75
2022-08-18T01:52:57.407Z,24.83
2022-08-18T01:55:28.365Z,24.67
2022-08-18T01:57:56.028Z,24.71
2022-08-18T02:00:24.993Z,24.65
2022-08-18T02:02:58.122Z,24.61
2022-08-18T02:05:37.482Z,24.64
2022-08-18T02:08:06.624Z,24.51
2022-08-18T02:10:34.449Z,24.52
2022-08-18T02:13:02.451Z,24.58
2022-08-18T02:15:29.693Z,24.54
2022-08-18T02:17:56.856Z,24.42
2022-08-18T02:20:24.578Z,24.50
2022-08-18T02:22:52.512Z,24.51
2022-08-18T02:25:20.402Z,24.53
2022-08-18T02:27:47.541Z,24.49
2022-08-18T02:30:18.644Z,24.49
2022-08-18T02:32:45.857Z,24.47
2022-08-18T02:35:13.191Z,24.35
2022-08-18T02:37:42.250Z,24.19
2022-08-18T02:40:14.727Z,24.16
2022-08-18T02:42:44.414Z,24.28
2022-08-18T02:45:12.887Z,24.17
2022-08-18T02:47:40.399Z,24.12
2022-08-18T02:50:11.982Z,24.17
2022-08-18T02:52:40.367Z,24.18
2022-08-18T02:55:09.049Z,24.21
2022-08-18T02:57:36.568Z,24.20
2022-08-18T03:00:04.881Z,24.12
2022-08-18T03:02:32.387Z,24.10
2022-08-18T03:04:59.645Z,24.01
2022-08-18T03:07:26.689Z,24.08
2022-08-18T03:09:53.722Z,24.13
2022-08-18T03:12:20.726Z,24.15
2022-08-18T03:14:47.875Z,23.98
2022-08-18T03:17:15.120Z,23.86
2022-08-18T03:19:47.920Z,24.12
2022-08-18T03:22:27.159Z,24.16
2022-08-18T03:24:56.053Z,24.11
2022-08-18T03:27:23.047Z,24.04
2022-08-18T03:29:51.171Z,24.08
2022-08-18T03:32:18.809Z,24.14
2022-08-18T03:34:45.933Z,24.06
2022-08-18T03:37:15.899Z,24.12
2022-08-18T03:39:43.143Z,24.07
2022-08-18T03:42:10.393Z,24.15
2022-08-18T03:44:37.573Z,24.11
2022-08-18T03:47:11.003Z,24.09
2022-08-18T03:49:39.141Z,23.99
2022-08-18T03:52:10.325Z,23.86
2022-08-18T03:54:39.194Z,23.99
2022-08-18T03:57:09.649Z,23.99
2022-08-18T03:59:37.453Z,23.92
2022-08-18T04:02:05.518Z,24.01
2022-08-18T04:04:32.712Z,23.99
2022-08-18T04:07:07.704Z,24.04
2022-08-18T04:09:36.766Z,24.00
2022-08-18T04:12:15.434Z,23.98
2022-08-18T04:14:48.749Z,23.99
2022-08-18T04:17:25.235Z,24.05
2022-08-18T04:19:56.905Z,23.96
2022-08-18T04:22:25.334Z,24.05
2022-08-18T04:24:53.552Z,24.06
2022-08-18T04:27:22.824Z,24.04
2022-08-18T04:29:50.142Z,24.06
2022-08-18T04:32:34.842Z,24.11
2022-08-18T04:35:02.730Z,24.04
2022-08-18T04:37:32.390Z,24.07
2022-08-18T04:40:00.370Z,24.05
2022-08-18T04:42:27.531Z,24.03
2022-08-18T04:44:54.604Z,23.87
2022-08-18T04:47:22.109Z,23.90
2022-08-18T04:49:50.797Z,23.92
2022-08-18T04:52:40.710Z,24.06
2022-08-18T04:55:10.419Z,24.07
2022-08-18T04:57:38.098Z,24.08
2022-08-18T05:00:07.445Z,24.09
2022-08-18T05:02:35.015Z,24.03
2022-08-18T05:05:03.871Z,24.14
2022-08-18T05:07:31.564Z,24.15
2022-08-18T05:09:58.896Z,24.18
2022-08-18T05:12:26.825Z,24.18
2022-08-18T05:14:57.029Z,24.41
2022-08-18T05:17:29.075Z,24.47
2022-08-18T05:19:58.784Z,24.56
2022-08-18T05:22:28.388Z,24.71
2022-08-18T05:24:55.849Z,24.62
2022-08-18T05:27:22.829Z,24.87
2022-08-18T05:29:51.686Z,24.91
2022-08-18T05:32:40.911Z,24.97
2022-08-18T05:35:18.262Z,25.30
2022-08-18T05:37:54.998Z,25.35
2022-08-18T05:40:27.384Z,25.50
2022-08-18T05:42:58.450Z,25.55
2022-08-18T05:45:26.907Z,25.70
2022-08-18T05:48:02.387Z,25.62
2022-08-18T05:50:37.285Z,25.77
2022-08-18T05:53:13.884Z,25.68
2022-08-18T05:56:16.740Z,25.64
2022-08-18T05:58:51.739Z,25.49
2022-08-18T06:01:55.696Z,25.51
2022-08-18T06:04:39.561Z,25.52
2022-08-18T06:07:13.515Z,25.35
2022-08-18T06:09:58.676Z,25.52
2022-08-18T06:12:42.194Z,25.69
2022-08-18T06:15:27.829Z,25.79
2022-08-18T06:18:10.719Z,25.89
2022-08-18T06:21:16.188Z,26.00
2022-08-18T06:24:28.708Z,26.13
2022-08-18T06:27:20.112Z,26.21
2022-08-18T06:30:19.442Z,26.42
2022-08-18T06:34:01.699Z,26.51
2022-08-18T06:36:51.358Z,26.69
2022-08-18T06:39:45.685Z,26.76
2022-08-18T06:42:26.633Z,26.78
2022-08-18T06:45:03.449Z,26.93
2022-08-18T06:47:45.574Z,27.02
2022-08-18T06:50:33.078Z,26.97
2022-08-18T06:53:07.995Z,27.13
2022-08-18T06:55:55.541Z,27.19
2022-08-18T06:58:31.808Z,27.22
2022-08-18T07:01:07.379Z,27.27
2022-08-18T07:03:41.188Z,27.43
2022-08-18T07:06:24.347Z,27.44
2022-08-18T07:09:22.130Z,27.44
2022-08-18T07:12:08.671Z,27.46
2022-08-18T07:14:55.236Z,27.62
2022-08-18T07:17:43.384Z,27.61
2022-08-18T07:20:22.683Z,27.82
2022-08-18T07:23:08.107Z,27.86
2022-08-18T07:25:45.882Z,27.92
2022-08-18T07:28:33.712Z,28.05
2022-08-18T07:31:28.213Z,28.15
2022-08-18T07:34:12.692Z,28.23
2022-08-18T07:36:53.207Z,28.24
2022-08-18T07:39:29.758Z,28.39
2022-08-18T07:42:53.910Z,28.51
2022-08-18T07:45:32.764Z,28.64
2022-08-18T07:48:37.497Z,28.72
2022-08-18T07:51:13.275Z,28.82
2022-08-18T07:54:44.919Z,28.93
2022-08-18T07:57:19.689Z,28.97
2022-08-18T08:00:18.605Z,29.11
2022-08-18T08:03:26.722Z,29.15
2022-08-18T08:06:11.802Z,29.19
2022-08-18T08:09:09.931Z,29.30
2022-08-18T08:11:56.364Z,29.34
2022-08-18T08:14:35.584Z,29.39
2022-08-18T08:17:23.920Z,29.43
2022-08-18T08:20:00.595Z,29.47
2022-08-18T08:22:55.091Z,29.56
2022-08-18T08:25:50.609Z,29.58
2022-08-18T08:28:57.459Z,29.81
2022-08-18T08:31:47.471Z,29.92
2022-08-18T08:34:17.383Z,29.98
2022-08-18T08:36:48.173Z,30.02
2022-08-18T08:39:28.385Z,30.01
2022-08-18T08:42:30.534Z,30.15
2022-08-18T08:45:07.261Z,30.17
2022-08-18T08:47:48.111Z,30.26
2022-08-18T08:50:26.362Z,30.25
2022-08-18T08:53:24.833Z,30.31
2022-08-18T08:56:02.397Z,30.29
2022-08-18T08:58:36.809Z,30.26
2022-08-18T09:01:05.106Z,30.24
2022-08-18T09:03:53.480Z,30.25
2022-08-18T09:07:08.347Z,30.29
2022-08-18T09:10:22.819Z,30.30
2022-08-18T09:13:01.865Z,30.33
2022-08-18T09:15:49.534Z,30.35
2022-08-18T09:19:04.948Z,30.48
2022-08-18T09:21:47.694Z,30.49
2022-08-18T09:24:47.487Z,30.54
2022-08-18T09:27:30.541Z,30.55
2022-08-18T09:30:04.332Z,30.61
2022-08-18T09:32:53.083Z,30.68
2022-08-18T09:35:43.987Z,30.70
2022-08-18T09:38:39.846Z,30.69
2022-08-18T09:41:50.968Z,30.66
2022-08-18T09:44:48.482Z,30.72
2022-08-18T09:47:24.677Z,30.76
2022-08-18T09:49:57.506Z,30.76
2022-08-18T09:52:26.957Z,30.74
2022-08-18T09:55:05.521Z,30.80
2022-08-18T09:57:42.455Z,30.77
2022-08-18T10:00:14.763Z,30.77
2022-08-18T10:02:41.868Z,30.78
2022-08-18T10:05:15.787Z,30.77
2022-08-18T10:08:03.710Z,30.79
2022-08-18T10:11:00.571Z,30.82
2022-08-18T10:14:25.867Z,30.86
2022-08-18T10:17:23.807Z,30.94
2022-08-18T10:20:26.736Z,31.00
2022-08-18T10:22:56.556Z,31.03
2022-08-18T10:25:52.801Z,31.17
2022-08-18T10:28:56.335Z,31.26
2022-08-18T10:31:27.289Z,31.28
2022-08-18T10:34:15.993Z,31.39
2022-08-18T10:36:54.961Z,31.47
2022-08-18T10:39:42.296Z,31.59
2022-08-18T10:42:35.608Z,31.65
2022-08-18T10:45:28.102Z,31.64
2022-08-18T10:48:16.909Z,31.70
2022-08-18T10:51:15.388Z,31.70
2022-08-18T10:54:03.257Z,31.79
2022-08-18T10:56:48.121Z,31.83
2022-08-18T10:59:54.692Z,31.91
2022-08-18T11:02:44.201Z,31.97
2022-08-18T11:05:17.321Z,32.03
2022-08-18T11:07:52.116Z,32.06
2022-08-18T11:10:58.190Z,31.83
2022-08-18T11:13:52.968Z,31.94
2022-08-18T11:16:51.149Z,32.13
2022-08-18T11:19:25.156Z,32.06
2022-08-18T11:21:53.825Z,32.02
2022-08-18T11:24:28.203Z,31.96
2022-08-18T11:27:04.238Z,31.80
2022-08-18T11:29:42.533Z,31.47
2022-08-18T11:32:32.396Z,31.17
2022-08-18T11:35:01.995Z,31.00
2022-08-18T11:37:53.451Z,30.84
2022-08-18T11:43:41.102Z,30.70
2022-08-18T11:46:30.033Z,30.71
2022-08-18T11:49:01.753Z,30.67
2022-08-18T11:51:32.906Z,30.59
2022-08-18T11:54:12.792Z,30.46
2022-08-18T11:56:40.008Z,30.32
2022-08-18T11:59:53.140Z,30.20
2022-08-18T12:02:19.310Z,30.17
2022-08-18T12:05:08.702Z,30.12
2022-08-18T12:07:45.382Z,30.06
2022-08-18T12:10:28.959Z,30.04
2022-08-18T12:13:00.682Z,30.05
2022-08-18T12:15:43.558Z,30.03
2022-08-18T12:18:26.362Z,29.99
2022-08-18T12:21:02.720Z,29.99
2022-08-18T12:26:38.079Z,29.72
2022-08-18T12:29:09.053Z,29.62
2022-08-18T12:34:27.340Z,29.72
2022-08-18T12:37:54.403Z,29.71
2022-08-18T12:40:08.635Z,29.63
2022-08-18T12:42:36.044Z,29.63
2022-08-18T12:45:03.428Z,29.69
2022-08-18T12:47:31.648Z,29.79
2022-08-18T12:49:59.358Z,29.83
2022-08-18T12:52:28.587Z,29.83
2022-08-18T12:54:56.104Z,29.84
2022-08-18T12:57:51.629Z,29.75
2022-08-18T13:03:19.859Z,29.16
2022-08-18T13:05:47.135Z,29.33
2022-08-18T13:08:30.018Z,29.33
2022-08-18T13:11:15.233Z,29.44
2022-08-18T13:13:53.130Z,29.50
2022-08-18T13:16:38.687Z,29.51
2022-08-18T13:19:15.030Z,29.45
2022-08-18T13:21:42.953Z,29.43
2022-08-18T13:24:12.632Z,29.35
2022-08-18T13:26:47.373Z,29.31
2022-08-18T13:29:17.952Z,29.30
2022-08-18T13:31:55.917Z,29.34
2022-08-18T13:34:29.813Z,29.32
2022-08-18T13:36:57.786Z,29.40
2022-08-18T13:39:25.730Z,29.49
2022-08-18T13:42:01.460Z,29.63
2022-08-18T13:44:49.861Z,29.71
2022-08-18T13:47:21.708Z,29.70
2022-08-18T13:49:58.635Z,29.68
2022-08-18T13:52:41.221Z,29.60
2022-08-18T13:55:16.867Z,29.68
2022-08-18T13:57:54.038Z,29.71
2022-08-18T14:00:34.655Z,29.69
2022-08-18T14:03:03.502Z,29.67
2022-08-18T14:05:36.462Z,29.78
2022-08-18T14:08:19.135Z,29.89
2022-08-18T14:10:53.212Z,29.88
2022-08-18T14:13:24.350Z,29.82
2022-08-18T14:15:56.142Z,29.80
2022-08-18T14:18:29.090Z,29.77
2022-08-18T14:21:23.054Z,29.68
2022-08-18T14:24:10.513Z,29.60
2022-08-18T14:26:50.842Z,29.57
2022-08-18T14:29:46.470Z,29.51
2022-08-18T14:32:07.339Z,29.38
2022-08-18T14:34:34.605Z,29.27
2022-08-18T14:37:03.371Z,29.21
2022-08-18T14:39:30.498Z,29.21
2022-08-18T14:41:58.532Z,29.27
2022-08-18T14:44:29.065Z,29.24
2022-08-18T14:46:58.981Z,29.26
2022-08-18T14:49:28.494Z,29.26
2022-08-18T14:52:01.093Z,29.32
2022-08-18T14:54:30.118Z,29.33
2022-08-18T14:57:01.766Z,29.28
2022-08-18T14:59:30.916Z,29.21
2022-08-18T15:02:01.914Z,29.14
2022-08-18T15:04:29.020Z,29.12
2022-08-18T15:06:57.596Z,29.06
2022-08-18T15:09:27.714Z,29.12
2022-08-18T15:11:58.050Z,29.09
2022-08-18T15:14:32.953Z,28.99
2022-08-18T15:17:11.803Z,28.83
2022-08-18T15:20:00.422Z,28.75
2022-08-18T15:22:47.911Z,28.58
2022-08-18T15:25:34.859Z,28.60
2022-08-18T15:28:02.078Z,28.64
2022-08-18T15:30:29.425Z,28.68
2022-08-18T15:32:58.930Z,28.73
2022-08-18T15:35:26.176Z,28.73
2022-08-18T15:37:54.700Z,28.82
2022-08-18T15:40:31.064Z,28.85
2022-08-18T15:43:09.579Z,28.83
2022-08-18T15:45:56.364Z,28.83
2022-08-18T15:48:28.351Z,28.84
2022-08-18T15:50:56.005Z,28.75
2022-08-18T15:53:30.099Z,28.73
2022-08-18T15:55:57.923Z,28.62
2022-08-18T15:58:26.918Z,28.63
2022-08-18T16:00:58.817Z,28.63
2022-08-18T16:03:26.197Z,28.57
2022-08-18T16:05:55.362Z,28.51
2022-08-18T16:08:25.409Z,28.50
2022-08-18T16:10:53.889Z,28.47
2022-08-18T16:13:22.573Z,28.43
2022-08-18T16:15:50.361Z,28.44
2022-08-18T16:18:20.967Z,28.56
2022-08-18T16:20:48.788Z,28.53
2022-08-18T16:23:20.012Z,28.62
2022-08-18T16:25:46.979Z,28.62
2022-08-18T16:28:14.032Z,28.42
2022-08-18T16:30:41.940Z,28.31
2022-08-18T16:33:09.502Z,28.29
2022-08-18T16:35:38.592Z,28.31
2022-08-18T16:38:08.824Z,28.28
2022-08-18T16:40:37.655Z,28.14
2022-08-18T16:43:07.142Z,28.09
2022-08-18T16:45:37.635Z,27.96
2022-08-18T16:48:08.233Z,27.97
2022-08-18T16:50:37.711Z,27.91
2022-08-18T16:53:05.577Z,27.96
2022-08-18T16:55:32.750Z,27.94
2022-08-18T16:58:18.531Z,27.89
2022-08-18T17:01:04.073Z,27.76
2022-08-18T17:03:49.637Z,27.61
2022-08-18T17:06:19.356Z,27.60
2022-08-18T17:08:46.806Z,27.45
2022-08-18T17:11:18.863Z,27.43
2022-08-18T17:13:49.835Z,27.45
2022-08-18T17:16:19.847Z,27.45
2022-08-18T17:18:47.768Z,27.38
2022-08-18T17:21:21.528Z,27.39
2022-08-18T17:23:50.442Z,27.48
2022-08-18T17:26:38.402Z,27.48
2022-08-18T17:29:27.044Z,27.46
2022-08-18T17:32:03.884Z,27.43
2022-08-18T17:34:39.615Z,27.41
2022-08-18T17:37:13.381Z,27.46
2022-08-18T17:40:00.490Z,27.53
2022-08-18T17:42:31.965Z,27.57
2022-08-18T17:45:10.557Z,27.52
2022-08-18T17:48:16.231Z,27.53
2022-08-18T17:51:30.336Z,27.50
2022-08-18T17:54:01.120Z,27.41
2022-08-18T17:56:39.910Z,27.45
2022-08-18T17:59:50.969Z,27.42
2022-08-18T18:02:29.449Z,27.47
2022-08-18T18:05:06.349Z,27.47
2022-08-18T18:07:50.501Z,27.47
2022-08-18T18:13:33.711Z,27.39
2022-08-18T18:16:35.097Z,27.30
2022-08-18T18:19:06.789Z,27.25
2022-08-18T18:22:07.771Z,27.18
2022-08-18T18:24:38.504Z,27.12
2022-08-18T18:27:43.428Z,27.07
2022-08-18T18:30:16.724Z,26.85
2022-08-18T18:33:05.080Z,26.68
2022-08-18T18:36:03.766Z,26.66
2022-08-18T18:38:38.078Z,26.60
2022-08-18T18:41:14.142Z,26.57
2022-08-18T18:43:47.419Z,26.57
2022-08-18T18:46:21.941Z,26.55
2022-08-18T18:49:07.856Z,26.44
2022-08-18T18:52:13.995Z,26.41
2022-08-18T18:55:02.437Z,26.43
2022-08-18T18:57:44.642Z,26.46
2022-08-18T19:00:30.045Z,26.47
2022-08-18T19:03:23.685Z,26.48
2022-08-18T19:06:21.247Z,26.53
2022-08-18T19:08:53.899Z,26.60
2022-08-18T19:11:48.061Z,26.70
2022-08-18T19:14:26.553Z,26.68
2022-08-18T19:17:08.996Z,26.61
2022-08-18T19:19:55.453Z,26.52
2022-08-18T19:22:34.116Z,26.51
2022-08-18T19:25:22.997Z,26.50
2022-08-18T19:27:59.545Z,26.51
2022-08-18T19:30:28.311Z,26.46
2022-08-18T19:33:00.978Z,26.38
2022-08-18T19:35:58.795Z,26.41
2022-08-18T19:38:36.888Z,26.40
2022-08-18T19:41:39.515Z,26.47
2022-08-18T19:44:31.278Z,26.48
2022-08-18T19:47:12.915Z,26.46
2022-08-18T19:50:01.146Z,26.43
2022-08-18T19:53:04.791Z,26.37
2022-08-18T19:56:21.500Z,26.46
2022-08-18T19:59:15.427Z,26.45
2022-08-18T20:02:12.125Z,26.44
2022-08-18T20:04:59.174Z,26.43
2022-08-18T20:08:13.124Z,26.41
2022-08-18T20:11:16.652Z,26.41
2022-08-18T20:13:45.791Z,26.40
2022-08-18T20:16:43.755Z,26.41
2022-08-18T20:19:33.607Z,26.43
2022-08-18T20:22:21.748Z,26.45
2022-08-18T20:25:23.636Z,26.47
2022-08-18T20:28:23.651Z,26.47
2022-08-18T20:31:15.965Z,26.46
2022-08-18T20:34:14.288Z,26.46
2022-08-18T20:36:45.065Z,26.50
2022-08-18T20:39:48.710Z,26.52
2022-08-18T20:42:21.512Z,26.50
2022-08-18T20:44:48.460Z,26.47
2022-08-18T20:47:42.648Z,26.43
2022-08-18T20:50:50.536Z,26.30
2022-08-18T20:53:57.667Z,26.39
2022-08-18T20:56:46.531Z,26.39
2022-08-18T20:59:22.032Z,26.38
2022-08-18T21:02:30.301Z,26.32
2022-08-18T21:05:00.712Z,26.25
2022-08-18T21:07:37.416Z,26.20
2022-08-18T21:10:24.895Z,26.19
2022-08-18T21:12:57.809Z,26.25
2022-08-18T21:15:35.614Z,26.26
2022-08-18T21:18:24.768Z,26.27
2022-08-18T21:20:56.140Z,26.25
2022-08-18T21:23:37.634Z,26.24
2022-08-18T21:26:13.792Z,26.15
2022-08-18T21:28:47.911Z,26.16
2022-08-18T21:31:42.699Z,26.18
2022-08-18T21:34:43.005Z,25.78
2022-08-18T21:37:15.726Z,26.17
2022-08-18T21:40:03.064Z,26.18
2022-08-18T21:42:43.704Z,26.21
2022-08-18T21:45:18.507Z,26.23
2022-08-18T21:47:56.608Z,26.23
2022-08-18T21:50:28.978Z,26.27
2022-08-18T21:53:00.818Z,26.28
2022-08-18T21:55:49.571Z,26.31
2022-08-18T21:58:40.596Z,26.33
2022-08-18T22:01:10.803Z,26.34
2022-08-18T22:04:18.177Z,26.34
2022-08-18T22:07:34.140Z,26.35
2022-08-18T22:10:42.917Z,26.28
2022-08-18T22:13:44.489Z,26.33
2022-08-18T22:16:36.278Z,26.33
2022-08-18T22:19:27.656Z,26.33
2022-08-18T22:22:27.292Z,26.28
2022-08-18T22:24:58.876Z,26.31
2022-08-18T22:27:27.414Z,26.36
2022-08-18T22:30:05.129Z,26.39
2022-08-18T22:32:38.731Z,26.39
2022-08-18T22:35:08.130Z,26.39
2022-08-18T22:37:50.114Z,26.41
2022-08-18T22:40:21.442Z,26.39
2022-08-18T22:42:49.533Z,26.38
2022-08-18T22:45:16.611Z,26.35
2022-08-18T22:47:45.069Z,26.37
2022-08-18T22:50:13.533Z,26.38
2022-08-18T22:52:46.620Z,26.33
2022-08-18T22:55:22.063Z,26.33
2022-08-18T22:57:55.871Z,26.29
2022-08-18T23:00:26.273Z,26.24
2022-08-18T23:02:55.355Z,26.22
2022-08-18T23:05:23.386Z,26.19
2022-08-18T23:07:50.643Z,26.11
2022-08-18T23:10:18.259Z,26.15
2022-08-18T23:12:47.538Z,26.13
2022-08-18T23:15:18.013Z,26.09
2022-08-18T23:17:45.056Z,26.03
2022-08-18T23:20:19.305Z,26.06
2022-08-18T23:22:48.114Z,26.05
2022-08-18T23:25:15.746Z,25.94
2022-08-18T23:27:43.299Z,25.99
2022-08-18T23:30:11.388Z,25.96
2022-08-18T23:32:38.532Z,25.94
2022-08-18T23:35:15.406Z,25.96
2022-08-18T23:37:42.590Z,25.94
2022-08-18T23:40:17.525Z,25.97
2022-08-18T23:42:44.973Z,25.96
2022-08-18T23:45:12.322Z,25.98
2022-08-18T23:47:41.306Z,25.96
2022-08-18T23:50:08.957Z,25.89
2022-08-18T23:52:36.243Z,25.91
2022-08-18T23:55:10.666Z,25.89
2022-08-18T23:57:37.693Z,25.80
